createdAt,value
2022-08-11T00:01:21.303Z,6.07
2022-08-11T00:03:53.861Z,5.22
2022-08-11T00:06:39.541Z,5.32
2022-08-11T00:09:14.029Z,5.40
2022-08-11T00:12:01.502Z,6.40
2022-08-11T00:14:36.046Z,6.13
2022-08-11T00:17:06.529Z,5.20
2022-08-11T00:20:14.070Z,6.07
2022-08-11T00:22:26.012Z,4.80
2022-08-11T00:24:57.353Z,4.97
2022-08-11T00:27:37.183Z,4.37
2022-08-11T00:30:06.782Z,5.28
2022-08-11T00:32:35.413Z,5.05
2022-08-11T00:35:51.763Z,4.45
2022-08-11T00:37:56.090Z,4.53
2022-08-11T00:40:39.431Z,4.95
2022-08-11T00:43:20.322Z,4.28
2022-08-11T00:46:09.619Z,4.30
2022-08-11T00:48:46.744Z,4.95
2022-08-11T00:51:23.059Z,6.07
2022-08-11T00:54:19.280Z,6.07
2022-08-11T00:57:37.134Z,5.82
2022-08-11T01:00:17.083Z,5.43
2022-08-11T01:03:18.270Z,5.07
2022-08-11T01:06:00.322Z,5.65
2022-08-11T01:08:44.945Z,5.53
2022-08-11T01:11:24.019Z,4.72
2022-08-11T01:13:51.102Z,5.60
2022-08-11T01:16:33.067Z,4.88
2022-08-11T01:19:21.930Z,4.88
2022-08-11T01:22:13.989Z,5.28
2022-08-11T01:25:01.941Z,5.00
2022-08-11T01:27:59.506Z,4.57
2022-08-11T01:30:32.673Z,4.55
2022-08-11T01:33:11.895Z,4.75
2022-08-11T01:35:59.242Z,4.60
2022-08-11T01:38:44.513Z,5.50
2022-08-11T01:42:07.956Z,4.70
2022-08-11T01:44:50.311Z,4.57
2022-08-11T01:47:54.416Z,5.70
2022-08-11T01:50:38.845Z,5.90
2022-08-11T01:53:35.626Z,5.15
2022-08-11T01:56:41.667Z,5.27
2022-08-11T01:59:24.896Z,4.75
2022-08-11T02:01:58.426Z,5.07
2022-08-11T02:04:34.434Z,4.63
2022-08-11T02:07:13.259Z,4.75
2022-08-11T02:09:55.363Z,4.65
2022-08-11T02:12:52.203Z,4.95
2022-08-11T02:15:36.503Z,4.93
2022-08-11T02:18:12.346Z,5.05
2022-08-11T02:21:25.271Z,4.80
2022-08-11T02:24:07.129Z,4.18
2022-08-11T02:26:44.443Z,5.13
2022-08-11T02:29:35.201Z,4.78
2022-08-11T02:32:38.233Z,4.68
2022-08-11T02:35:32.879Z,4.43
2022-08-11T02:38:16.558Z,5.20
2022-08-11T02:41:50.611Z,4.50
2022-08-11T02:44:36.151Z,4.82
2022-08-11T02:47:08.769Z,6.35
2022-08-11T02:50:07.378Z,5.13
2022-08-11T02:52:46.890Z,5.32
2022-08-11T02:55:56.367Z,5.43
2022-08-11T02:58:35.551Z,5.07
2022-08-11T03:01:11.639Z,4.97
2022-08-11T03:03:48.292Z,4.65
2022-08-11T03:06:24.391Z,4.40
2022-08-11T03:09:06.533Z,5.15
2022-08-11T03:12:25.204Z,4.90
2022-08-11T03:18:18.581Z,4.82
2022-08-11T03:20:57.655Z,4.90
2022-08-11T03:23:24.800Z,5.10
2022-08-11T03:26:17.936Z,4.97
2022-08-11T03:28:55.468Z,5.03
2022-08-11T03:31:49.076Z,4.75
2022-08-11T03:34:26.274Z,5.32
2022-08-11T03:37:35.066Z,6.07
2022-08-11T03:43:02.832Z,5.18
2022-08-11T03:45:49.586Z,5.50
2022-08-11T03:48:47.646Z,5.15
2022-08-11T03:54:20.172Z,5.97
2022-08-11T03:57:11.514Z,5.05
2022-08-11T03:59:53.719Z,5.30
2022-08-11T04:02:45.361Z,4.82
2022-08-11T04:05:21.688Z,4.25
2022-08-11T04:08:19.613Z,6.30
2022-08-11T04:11:05.564Z,4.70
2022-08-11T04:14:20.623Z,4.78
2022-08-11T04:17:13.871Z,5.50
2022-08-11T04:20:18.437Z,5.40
2022-08-11T04:23:03.231Z,5.07
2022-08-11T04:25:51.113Z,5.53
2022-08-11T04:28:34.657Z,5.50
2022-08-11T04:31:13.213Z,4.95
2022-08-11T04:34:19.176Z,4.80
2022-08-11T04:37:04.738Z,5.20
2022-08-11T04:39:57.950Z,5.65
2022-08-11T04:43:08.608Z,4.50
2022-08-11T04:46:13.499Z,4.47
2022-08-11T04:49:26.169Z,4.32
2022-08-11T04:52:38.449Z,4.90
2022-08-11T04:55:27.037Z,4.78
2022-08-11T04:58:30.028Z,6.60
2022-08-11T05:01:35.163Z,6.03
2022-08-11T05:04:32.375Z,7.10
2022-08-11T05:07:20.689Z,6.55
2022-08-11T05:09:54.031Z,7.05
2022-08-11T05:12:46.616Z,5.82
2022-08-11T05:15:43.158Z,6.03
2022-08-11T05:18:35.138Z,5.95
2022-08-11T05:21:27.791Z,5.63
2022-08-11T05:24:21.600Z,6.10
2022-08-11T05:27:13.626Z,4.88
2022-08-11T05:30:23.365Z,5.20
2022-08-11T05:33:26.464Z,6.82
2022-08-11T05:36:12.876Z,6.07
2022-08-11T05:39:07.615Z,7.22
2022-08-11T05:41:53.882Z,4.75
2022-08-11T05:44:40.775Z,3.73
2022-08-11T05:47:27.077Z,3.80
2022-08-11T05:50:13.691Z,4.32
2022-08-11T05:53:04.947Z,3.40
2022-08-11T05:56:03.218Z,3.90
2022-08-11T05:58:42.886Z,4.70
2022-08-11T06:01:20.933Z,3.95
2022-08-11T06:04:11.120Z,3.38
2022-08-11T06:06:45.183Z,4.32
2022-08-11T06:09:14.534Z,4.25
2022-08-11T06:11:44.927Z,3.88
2022-08-11T06:14:15.586Z,3.85
2022-08-11T06:16:47.735Z,4.72
2022-08-11T06:19:15.831Z,4.20
2022-08-11T06:21:48.019Z,4.53
2022-08-11T06:24:16.214Z,4.43
2022-08-11T06:27:11.366Z,5.25
2022-08-11T06:29:47.980Z,5.20
2022-08-11T06:32:28.514Z,6.78
2022-08-11T06:35:30.278Z,6.43
2022-08-11T06:37:59.075Z,6.30
2022-08-11T06:41:23.024Z,7.40
2022-08-11T06:44:03.262Z,6.50
2022-08-11T06:46:39.638Z,7.97
2022-08-11T06:49:31.607Z,7.32
2022-08-11T06:52:06.062Z,7.25
2022-08-11T06:54:41.407Z,6.07
2022-08-11T06:57:32.707Z,7.20
2022-08-11T07:00:28.199Z,5.15
2022-08-11T07:03:03.401Z,6.53
2022-08-11T07:05:49.750Z,5.97
2022-08-11T07:09:12.796Z,6.05
2022-08-11T07:12:07.206Z,5.60
2022-08-11T07:15:00.299Z,4.18
2022-08-11T07:17:31.303Z,4.55
2022-08-11T07:20:20.091Z,3.85
2022-08-11T07:23:15.724Z,4.45
2022-08-11T07:26:05.830Z,3.92
2022-08-11T07:28:53.498Z,3.42
2022-08-11T07:31:50.154Z,4.47
2022-08-11T07:34:25.649Z,3.42
2022-08-11T07:36:56.379Z,3.40
2022-08-11T07:39:27.054Z,4.60
2022-08-11T07:41:57.457Z,3.33
2022-08-11T07:44:35.045Z,2.85
2022-08-11T07:47:23.082Z,3.03
2022-08-11T07:50:12.395Z,2.88
2022-08-11T07:52:40.645Z,2.63
2022-08-11T07:55:17.220Z,2.47
2022-08-11T07:58:15.467Z,2.40
2022-08-11T08:01:15.936Z,2.75
2022-08-11T08:04:09.712Z,2.53
2022-08-11T08:06:57.787Z,2.35
2022-08-11T08:09:44.693Z,2.60
2022-08-11T08:12:33.028Z,3.00
2022-08-11T08:15:24.910Z,2.33
2022-08-11T08:18:20.602Z,1.80
2022-08-11T08:20:46.164Z,2.10
2022-08-11T08:23:13.800Z,2.50
2022-08-11T08:25:44.134Z,2.30
2022-08-11T08:28:15.114Z,2.10
2022-08-11T08:30:47.811Z,2.78
2022-08-11T08:33:21.870Z,1.75
2022-08-11T08:36:17.063Z,1.80
2022-08-11T08:38:50.083Z,2.50
2022-08-11T08:41:25.397Z,2.03
2022-08-11T08:44:02.571Z,2.13
2022-08-11T08:46:49.426Z,1.80
2022-08-11T08:49:22.452Z,1.63
2022-08-11T08:51:58.772Z,2.00
2022-08-11T08:54:44.690Z,2.17
2022-08-11T08:57:14.042Z,2.05
2022-08-11T08:59:48.016Z,2.58
2022-08-11T09:02:34.122Z,2.67
2022-08-11T09:05:04.601Z,1.80
2022-08-11T09:07:39.106Z,2.05
2022-08-11T09:10:09.221Z,2.15
2022-08-11T09:12:39.453Z,1.70
2022-08-11T09:15:10.478Z,1.60
2022-08-11T09:17:47.130Z,2.00
2022-08-11T09:20:23.899Z,2.10
2022-08-11T09:26:21.932Z,1.80
2022-08-11T09:28:52.256Z,1.52
2022-08-11T09:31:22.046Z,1.90
2022-08-11T09:33:52.417Z,1.50
2022-08-11T09:36:39.386Z,1.67
2022-08-11T09:39:25.389Z,2.22
2022-08-11T09:42:01.271Z,2.30
2022-08-11T09:44:49.489Z,1.80
2022-08-11T09:47:23.105Z,1.38
2022-08-11T09:49:54.970Z,1.50
2022-08-11T09:52:24.161Z,1.63
2022-08-11T09:54:52.441Z,1.60
2022-08-11T09:57:40.515Z,1.60
2022-08-11T10:00:13.142Z,1.42
2022-08-11T10:02:48.445Z,2.22
2022-08-11T10:05:37.527Z,1.80
2022-08-11T10:08:07.329Z,2.22
2022-08-11T10:10:37.878Z,2.38
2022-08-11T10:14:12.466Z,2.00
2022-08-11T10:16:15.926Z,1.70
2022-08-11T10:18:52.180Z,1.30
2022-08-11T10:21:45.054Z,1.60
2022-08-11T10:24:31.471Z,1.73
2022-08-11T10:27:00.642Z,1.92
2022-08-11T10:29:52.404Z,1.55
2022-08-11T10:32:59.394Z,1.50
2022-08-11T10:35:29.707Z,1.52
2022-08-11T10:38:08.983Z,1.83
2022-08-11T10:40:45.300Z,1.60
2022-08-11T10:43:59.875Z,1.40
2022-08-11T10:46:29.563Z,1.73
2022-08-11T10:48:59.193Z,2.00
2022-08-11T10:51:50.986Z,2.10
2022-08-11T10:54:39.950Z,2.20
2022-08-11T10:57:26.076Z,2.38
2022-08-11T10:59:57.803Z,2.05
2022-08-11T11:02:27.403Z,1.70
2022-08-11T11:05:17.862Z,1.60
2022-08-11T11:07:53.178Z,2.50
2022-08-11T11:10:21.595Z,2.33
2022-08-11T11:13:15.410Z,1.42
2022-08-11T11:16:05.656Z,1.90
2022-08-11T11:18:36.747Z,2.20
2022-08-11T11:21:10.331Z,2.25
2022-08-11T11:23:47.460Z,1.70
2022-08-11T11:26:27.750Z,1.35
2022-08-11T11:29:56.735Z,1.98
2022-08-11T11:32:35.983Z,1.85
2022-08-11T11:35:22.189Z,1.42
2022-08-11T11:38:00.086Z,1.80
2022-08-11T11:40:34.242Z,1.75
2022-08-11T11:43:02.429Z,1.40
2022-08-11T11:45:29.994Z,1.42
2022-08-11T11:48:00.010Z,1.45
2022-08-11T11:50:31.862Z,1.15
2022-08-11T11:53:03.815Z,1.75
2022-08-11T11:55:31.729Z,1.40
2022-08-11T11:58:22.065Z,1.40
2022-08-11T12:01:11.132Z,1.30
2022-08-11T12:03:39.725Z,1.75
2022-08-11T12:06:09.540Z,1.52
2022-08-11T12:08:37.500Z,1.50
2022-08-11T12:11:26.093Z,1.80
2022-08-11T12:13:55.318Z,1.88
2022-08-11T12:16:33.060Z,1.60
2022-08-11T12:19:23.445Z,1.35
2022-08-11T12:22:10.117Z,1.40
2022-08-11T12:24:56.828Z,1.50
2022-08-11T12:27:26.474Z,1.92
2022-08-11T12:30:06.291Z,1.67
2022-08-11T12:32:37.038Z,1.80
2022-08-11T12:35:06.153Z,1.60
2022-08-11T12:37:48.131Z,1.20
2022-08-11T12:41:11.858Z,1.80
2022-08-11T12:43:56.939Z,1.80
2022-08-11T12:46:37.875Z,2.30
2022-08-11T12:49:31.394Z,2.42
2022-08-11T12:52:14.647Z,2.58
2022-08-11T12:54:52.336Z,2.35
2022-08-11T12:58:14.854Z,2.60
2022-08-11T13:01:00.395Z,2.15
2022-08-11T13:03:52.380Z,2.05
2022-08-11T13:06:25.069Z,1.60
2022-08-11T13:08:54.940Z,1.80
2022-08-11T13:11:55.549Z,1.40
2022-08-11T13:14:28.649Z,1.30
2022-08-11T13:17:15.159Z,1.75
2022-08-11T13:19:48.893Z,2.30
2022-08-11T13:22:19.504Z,2.15
2022-08-11T13:24:48.972Z,1.70
2022-08-11T13:27:18.909Z,1.50
2022-08-11T13:29:48.949Z,1.70
2022-08-11T13:32:18.947Z,1.50
2022-08-11T13:34:47.332Z,1.50
2022-08-11T13:37:16.559Z,1.90
2022-08-11T13:39:48.724Z,1.75
2022-08-11T13:42:20.227Z,1.60
2022-08-11T13:44:48.489Z,1.40
2022-08-11T13:47:16.314Z,1.40
2022-08-11T13:49:45.026Z,1.40
2022-08-11T13:52:15.238Z,1.30
2022-08-11T13:54:43.751Z,1.60
2022-08-11T13:58:08.725Z,2.15
2022-08-11T14:00:13.174Z,1.90
2022-08-11T14:02:54.010Z,1.80
2022-08-11T14:05:27.141Z,1.30
2022-08-11T14:08:01.286Z,1.80
2022-08-11T14:10:33.134Z,1.57
2022-08-11T14:13:41.241Z,1.58
2022-08-11T14:16:18.585Z,1.50
2022-08-11T14:21:37.409Z,1.70
2022-08-11T14:24:05.288Z,1.27
2022-08-11T14:26:38.911Z,1.33
2022-08-11T14:29:08.398Z,1.60
2022-08-11T14:31:44.047Z,2.50
2022-08-11T14:34:14.470Z,3.58
2022-08-11T14:36:52.268Z,2.10
2022-08-11T14:39:37.643Z,2.10
2022-08-11T14:42:25.749Z,1.70
2022-08-11T14:45:57.581Z,1.80
2022-08-11T14:48:27.217Z,1.58
2022-08-11T14:50:54.755Z,2.05
2022-08-11T14:53:23.408Z,1.60
2022-08-11T14:56:10.355Z,2.03
2022-08-11T14:58:40.417Z,3.22
2022-08-11T15:01:28.311Z,1.70
2022-08-11T15:04:34.455Z,1.58
2022-08-11T15:06:46.274Z,1.40
2022-08-11T15:09:13.679Z,1.35
2022-08-11T15:12:00.059Z,2.17
2022-08-11T15:14:46.160Z,2.00
2022-08-11T15:17:14.307Z,1.92
2022-08-11T15:20:02.655Z,1.50
2022-08-11T15:22:48.807Z,1.67
2022-08-11T15:25:16.668Z,1.77
2022-08-11T15:28:05.164Z,1.90
2022-08-11T15:30:52.075Z,2.20
2022-08-11T15:33:38.842Z,1.60
2022-08-11T15:36:27.423Z,1.55
2022-08-11T15:39:06.830Z,1.70
2022-08-11T15:42:03.824Z,2.05
2022-08-11T15:45:02.737Z,1.88
2022-08-11T15:47:41.696Z,1.60
2022-08-11T15:50:18.641Z,1.65
2022-08-11T15:52:56.469Z,4.70
2022-08-11T15:55:24.958Z,3.13
2022-08-11T15:58:13.967Z,1.90
2022-08-11T16:01:04.085Z,1.75
2022-08-11T16:04:12.625Z,2.90
2022-08-11T16:06:49.940Z,2.15
2022-08-11T16:09:51.641Z,1.70
2022-08-11T16:12:30.443Z,1.80
2022-08-11T16:15:25.017Z,1.50
2022-08-11T16:18:06.805Z,1.48
2022-08-11T16:20:35.781Z,1.80
2022-08-11T16:23:06.708Z,1.60
2022-08-11T16:27:02.607Z,1.60
2022-08-11T16:28:27.006Z,2.33
2022-08-11T16:30:56.763Z,2.65
2022-08-11T16:33:50.708Z,2.65
2022-08-11T16:36:34.105Z,2.38
2022-08-11T16:39:02.682Z,2.10
2022-08-11T16:41:51.956Z,1.90
2022-08-11T16:44:39.197Z,1.95
2022-08-11T16:47:10.662Z,1.95
2022-08-11T16:49:52.209Z,1.70
2022-08-11T16:52:22.952Z,2.42
2022-08-11T16:54:52.731Z,2.40
2022-08-11T16:57:44.212Z,2.40
2022-08-11T17:00:15.405Z,2.78
2022-08-11T17:03:05.503Z,2.70
2022-08-11T17:05:55.361Z,3.20
2022-08-11T17:09:10.655Z,3.40
2022-08-11T17:12:24.631Z,2.17
2022-08-11T17:14:58.912Z,2.72
2022-08-11T17:17:38.583Z,2.45
2022-08-11T17:20:42.158Z,2.88
2022-08-11T17:23:17.691Z,3.85
2022-08-11T17:25:59.877Z,5.07
2022-08-11T17:28:33.991Z,5.15
2022-08-11T17:31:22.706Z,5.30
2022-08-11T17:34:11.552Z,6.35
2022-08-11T17:36:44.537Z,5.22
2022-08-11T17:39:15.101Z,5.95
2022-08-11T17:42:02.539Z,14.00
2022-08-11T17:44:50.548Z,21.98
2022-08-11T17:47:37.130Z,26.30
2022-08-11T17:50:09.283Z,32.53
2022-08-11T17:53:05.009Z,30.98
2022-08-11T17:55:53.788Z,23.00
2022-08-11T17:58:42.141Z,23.25
2022-08-11T18:01:25.101Z,17.02
2022-08-11T18:03:58.537Z,13.23
2022-08-11T18:06:34.278Z,11.45
2022-08-11T18:09:26.264Z,9.43
2022-08-11T18:12:13.758Z,7.35
2022-08-11T18:15:10.129Z,3.13
2022-08-11T18:17:56.399Z,4.03
2022-08-11T18:20:43.754Z,3.03
2022-08-11T18:23:40.692Z,3.63
2022-08-11T18:26:39.030Z,3.25
2022-08-11T18:29:26.886Z,3.60
2022-08-11T18:32:20.737Z,4.00
2022-08-11T18:35:11.079Z,6.47
2022-08-11T18:38:04.499Z,3.20
2022-08-11T18:40:52.035Z,2.95
2022-08-11T18:43:42.912Z,2.80
2022-08-11T18:46:31.924Z,3.03
2022-08-11T18:49:24.721Z,3.45
2022-08-11T18:52:14.864Z,3.00
2022-08-11T18:55:03.452Z,2.75
2022-08-11T18:57:54.306Z,3.00
2022-08-11T19:00:42.638Z,3.33
2022-08-11T19:03:30.920Z,3.35
2022-08-11T19:06:38.102Z,3.60
2022-08-11T19:09:28.768Z,3.50
2022-08-11T19:12:17.247Z,3.67
2022-08-11T19:15:04.350Z,4.07
2022-08-11T19:17:51.647Z,3.78
2022-08-11T19:20:39.942Z,3.25
2022-08-11T19:23:29.555Z,3.72
2022-08-11T19:26:17.830Z,3.60
2022-08-11T19:29:07.573Z,3.70
2022-08-11T19:31:56.493Z,3.90
2022-08-11T19:34:43.780Z,3.63
2022-08-11T19:37:29.797Z,4.45
2022-08-11T19:40:20.561Z,3.83
2022-08-11T19:43:16.864Z,4.55
2022-08-11T19:46:15.398Z,4.13
2022-08-11T19:49:03.815Z,3.88
2022-08-11T19:51:54.273Z,3.85
2022-08-11T19:54:45.273Z,3.42
2022-08-11T19:57:37.181Z,3.60
2022-08-11T20:00:35.514Z,3.38
2022-08-11T20:03:24.395Z,3.28
2022-08-11T20:06:10.786Z,4.03
2022-08-11T20:09:00.837Z,4.20
2022-08-11T20:11:50.767Z,3.72
2022-08-11T20:14:40.052Z,4.63
2022-08-11T20:17:28.056Z,4.18
2022-08-11T20:20:16.185Z,3.50
2022-08-11T20:23:04.126Z,3.65
2022-08-11T20:25:53.184Z,3.95
2022-08-11T20:28:41.364Z,4.18
2022-08-11T20:31:28.952Z,3.63
2022-08-11T20:34:15.148Z,4.03
2022-08-11T20:37:02.924Z,3.63
2022-08-11T20:39:50.430Z,3.60
2022-08-11T20:42:38.763Z,3.70
2022-08-11T20:45:28.785Z,4.22
2022-08-11T20:48:16.173Z,4.07
2022-08-11T20:51:07.319Z,4.15
2022-08-11T20:53:59.685Z,4.55
2022-08-11T20:56:54.634Z,4.00
2022-08-11T20:59:52.818Z,4.13
2022-08-11T21:02:44.450Z,4.07
2022-08-11T21:06:10.436Z,3.58
2022-08-11T21:08:41.675Z,3.63
2022-08-11T21:11:29.292Z,3.92
2022-08-11T21:14:18.310Z,4.75
2022-08-11T21:17:27.767Z,4.22
2022-08-11T21:20:22.174Z,4.22
2022-08-11T21:23:23.722Z,4.28
2022-08-11T21:26:33.498Z,5.03
2022-08-11T21:29:20.974Z,6.30
2022-08-11T21:32:07.746Z,4.93
2022-08-11T21:37:40.010Z,4.03
2022-08-11T21:40:28.948Z,3.88
2022-08-11T21:43:17.999Z,3.47
2022-08-11T21:46:05.821Z,3.72
2022-08-11T21:48:53.278Z,3.80
2022-08-11T21:51:44.472Z,3.30
2022-08-11T21:54:30.653Z,3.40
2022-08-11T21:57:17.552Z,4.10
2022-08-11T22:00:14.981Z,3.80
2022-08-11T22:03:04.406Z,3.40
2022-08-11T22:05:52.390Z,4.05
2022-08-11T22:08:38.490Z,4.22
2022-08-11T22:11:32.416Z,4.07
2022-08-11T22:14:22.644Z,4.13
2022-08-11T22:17:08.687Z,5.03
2022-08-11T22:19:56.320Z,4.80
2022-08-11T22:22:49.079Z,4.18
2022-08-11T22:25:50.778Z,5.57
2022-08-11T22:28:38.300Z,5.47
2022-08-11T22:31:27.058Z,5.03
2022-08-11T22:34:12.700Z,5.10
2022-08-11T22:37:01.140Z,4.97
2022-08-11T22:40:01.632Z,4.28
2022-08-11T22:42:50.792Z,4.45
2022-08-11T22:45:37.239Z,4.03
2022-08-11T22:48:27.737Z,4.07
2022-08-11T22:51:16.174Z,4.03
2022-08-11T22:54:03.874Z,4.72
2022-08-11T22:56:50.763Z,4.70
2022-08-11T23:02:24.926Z,4.18
2022-08-11T23:05:11.133Z,4.30
2022-08-11T23:07:57.850Z,4.40
2022-08-11T23:10:44.661Z,4.28
2022-08-11T23:13:31.951Z,4.18
2022-08-11T23:16:18.654Z,4.55
2022-08-11T23:19:04.775Z,4.97
2022-08-11T23:21:52.453Z,5.65
2022-08-11T23:27:27.464Z,4.70
2022-08-11T23:30:18.774Z,4.53
2022-08-11T23:33:10.004Z,4.35
2022-08-11T23:36:03.541Z,4.43
2022-08-11T23:38:52.199Z,4.32
2022-08-11T23:41:38.577Z,5.45
2022-08-11T23:44:26.053Z,4.22
2022-08-11T23:47:15.097Z,4.88
2022-08-11T23:50:02.601Z,4.35
2022-08-11T23:52:49.713Z,4.45
2022-08-11T23:55:39.322Z,4.50
2022-08-11T23:58:25.876Z,4.32
